Southern Illinois Airport
KMDH : rendu visible

Aérodrome :











RETROUVEZ-NOUS SUR...

 
LOGIN :

S'inscrire | Disclaimer

   EN    FR    IT 

 









Légende :    VFR   VFR Marginal   IFR   IFR Intensif   IFR Très Intensif
Visi : 
Plafond : 
>= 8 km
>= 3000ft
5 à 8 km
1000 à 3000 ft
1500m à 5 km
500 à 1000 ft
800 à 1500m
200 à 500 ft
< 800m
< 200 ft
Symboles :   Orages  Brouillard  Fortes neiges  Fortes précipitations  Vent > 20 kt






- Altitude de l'aérodrome : 411 ft
- Code IATA : MDH


KMDH - Southern Illinois

DERNIER METAR :
  • 050052Z 34005KT 7SM FEW007 OVC015 06/05 A3010 RMK AO2 RAE48 SLP195 P0003 T00610050

METARs EXPIRÉS :
  • 050050Z 35006KT 7SM FEW007 OVC015 07/05 A3010 RMK AO2 RAE48 P0003
  • 050024Z 36006KT 3SM RA BR OVC015 07/05 A3009 RMK AO2 P0003 T00670050
  • 042352Z 35007KT 6SM -RA OVC014 07/04 A3009 RMK AO2 RAB40 SLP191 P0000 60001 T00720044 10083 20067 51001
  • 042252Z 35008KT 10SM OVC014 08/04 A3009 RMK AO2 SLP192 T00780039

TAF N/A



MET'MAP, la Météo Aéronautique d'un coup d'oeil ! - Copyright ORBIFLY Décembre 2007 - Disclaimer

ORBIFLY MET'MAP TEAM :

Programmation & Développement : Alexandra Zaïnal
Sur une idée originale de : Baudouin d'Aumeries
Assistance à la programmation : Marc-Olivier Méhu
Soutien technique & logistique : Manuel Goepfert

Contact : metmap@orbifly.com




SOURCES & CREDITS :

   NOAA       Earth
Advisory